sensor_id;sensor_type;location;lat;lon;timestamp;P1;durP1;ratioP1;P2;durP2;ratioP2
70169;SDS011;57543;45.442;9.212;2022-07-29T00:01:25;4.00;;;2.10;;
70169;SDS011;57543;45.442;9.212;2022-07-29T00:04:29;5.18;;;1.90;;
70169;SDS011;57543;45.442;9.212;2022-07-29T00:07:33;3.85;;;1.70;;
70169;SDS011;57543;45.442;9.212;2022-07-29T00:10:37;3.97;;;1.80;;
70169;SDS011;57543;45.442;9.212;2022-07-29T00:13:41;4.97;;;1.85;;
70169;SDS011;57543;45.442;9.212;2022-07-29T00:16:45;3.65;;;1.90;;
70169;SDS011;57543;45.442;9.212;2022-07-29T00:19:48;4.43;;;2.00;;
70169;SDS011;57543;45.442;9.212;2022-07-29T00:22:52;4.85;;;1.70;;
70169;SDS011;57543;45.442;9.212;2022-07-29T00:25:56;3.50;;;1.70;;
70169;SDS011;57543;45.442;9.212;2022-07-29T00:29:00;4.10;;;1.95;;
70169;SDS011;57543;45.442;9.212;2022-07-29T00:32:05;4.20;;;1.88;;
70169;SDS011;57543;45.442;9.212;2022-07-29T00:35:08;5.40;;;2.10;;
70169;SDS011;57543;45.442;9.212;2022-07-29T00:38:31;3.97;;;2.00;;
70169;SDS011;57543;45.442;9.212;2022-07-29T00:41:34;6.00;;;2.35;;
70169;SDS011;57543;45.442;9.212;2022-07-29T00:44:41;5.78;;;2.75;;
70169;SDS011;57543;45.442;9.212;2022-07-29T00:47:45;6.60;;;2.50;;
70169;SDS011;57543;45.442;9.212;2022-07-29T00:50:49;5.22;;;2.30;;
70169;SDS011;57543;45.442;9.212;2022-07-29T00:53:53;3.90;;;2.30;;
70169;SDS011;57543;45.442;9.212;2022-07-29T00:56:57;5.03;;;2.35;;
70169;SDS011;57543;45.442;9.212;2022-07-29T01:00:06;5.33;;;2.33;;
70169;SDS011;57543;45.442;9.212;2022-07-29T01:03:12;5.32;;;2.20;;
70169;SDS011;57543;45.442;9.212;2022-07-29T01:06:16;4.35;;;2.25;;
70169;SDS011;57543;45.442;9.212;2022-07-29T01:09:21;4.57;;;2.25;;
70169;SDS011;57543;45.442;9.212;2022-07-29T01:12:26;4.85;;;2.13;;
70169;SDS011;57543;45.442;9.212;2022-07-29T01:15:38;4.10;;;2.17;;
70169;SDS011;57543;45.442;9.212;2022-07-29T01:18:47;5.30;;;2.30;;
70169;SDS011;57543;45.442;9.212;2022-07-29T01:21:55;5.30;;;2.15;;
70169;SDS011;57543;45.442;9.212;2022-07-29T01:25:05;4.30;;;1.95;;
70169;SDS011;57543;45.442;9.212;2022-07-29T01:32:02;4.65;;;2.42;;
70169;SDS011;57543;45.442;9.212;2022-07-29T01:35:50;4.03;;;2.10;;
70169;SDS011;57543;45.442;9.212;2022-07-29T01:38:41;4.38;;;2.50;;
70169;SDS011;57543;45.442;9.212;2022-07-29T01:41:53;4.38;;;2.38;;
70169;SDS011;57543;45.442;9.212;2022-07-29T01:45:06;4.53;;;2.20;;
70169;SDS011;57543;45.442;9.212;2022-07-29T01:48:18;5.28;;;2.10;;
70169;SDS011;57543;45.442;9.212;2022-07-29T01:51:29;5.18;;;2.15;;
70169;SDS011;57543;45.442;9.212;2022-07-29T01:54:42;4.93;;;2.42;;
70169;SDS011;57543;45.442;9.212;2022-07-29T01:57:52;5.45;;;2.20;;
70169;SDS011;57543;45.442;9.212;2022-07-29T02:00:57;4.20;;;2.30;;
70169;SDS011;57543;45.442;9.212;2022-07-29T02:04:02;4.95;;;2.38;;
70169;SDS011;57543;45.442;9.212;2022-07-29T02:07:09;5.18;;;2.47;;
70169;SDS011;57543;45.442;9.212;2022-07-29T02:10:17;4.50;;;2.30;;
70169;SDS011;57543;45.442;9.212;2022-07-29T02:13:23;4.95;;;2.50;;
70169;SDS011;57543;45.442;9.212;2022-07-29T02:16:29;5.97;;;2.40;;
70169;SDS011;57543;45.442;9.212;2022-07-29T02:19:35;6.22;;;2.58;;
70169;SDS011;57543;45.442;9.212;2022-07-29T02:22:41;5.82;;;2.50;;
70169;SDS011;57543;45.442;9.212;2022-07-29T02:25:55;4.32;;;2.20;;
70169;SDS011;57543;45.442;9.212;2022-07-29T02:28:59;4.85;;;2.35;;
70169;SDS011;57543;45.442;9.212;2022-07-29T02:32:04;4.53;;;2.00;;
70169;SDS011;57543;45.442;9.212;2022-07-29T02:35:11;4.05;;;2.00;;
70169;SDS011;57543;45.442;9.212;2022-07-29T02:38:16;7.25;;;2.58;;
70169;SDS011;57543;45.442;9.212;2022-07-29T02:41:47;4.53;;;2.10;;
70169;SDS011;57543;45.442;9.212;2022-07-29T02:44:52;5.28;;;2.50;;
70169;SDS011;57543;45.442;9.212;2022-07-29T02:47:56;4.60;;;2.10;;
70169;SDS011;57543;45.442;9.212;2022-07-29T02:51:07;6.85;;;2.17;;
70169;SDS011;57543;45.442;9.212;2022-07-29T02:54:25;4.30;;;2.00;;
70169;SDS011;57543;45.442;9.212;2022-07-29T03:00:49;3.42;;;1.80;;
70169;SDS011;57543;45.442;9.212;2022-07-29T03:03:55;3.63;;;1.90;;
70169;SDS011;57543;45.442;9.212;2022-07-29T03:06:59;5.55;;;2.00;;
70169;SDS011;57543;45.442;9.212;2022-07-29T03:10:04;5.70;;;1.80;;
70169;SDS011;57543;45.442;9.212;2022-07-29T03:13:09;4.85;;;2.10;;
70169;SDS011;57543;45.442;9.212;2022-07-29T03:16:13;4.32;;;1.92;;
70169;SDS011;57543;45.442;9.212;2022-07-29T03:19:18;3.85;;;2.05;;
70169;SDS011;57543;45.442;9.212;2022-07-29T03:22:23;3.60;;;1.92;;
70169;SDS011;57543;45.442;9.212;2022-07-29T03:25:27;4.70;;;2.10;;
70169;SDS011;57543;45.442;9.212;2022-07-29T03:28:31;4.13;;;2.03;;
70169;SDS011;57543;45.442;9.212;2022-07-29T03:31:35;3.63;;;1.80;;
70169;SDS011;57543;45.442;9.212;2022-07-29T03:34:39;4.70;;;2.00;;
70169;SDS011;57543;45.442;9.212;2022-07-29T03:37:43;3.95;;;2.10;;
70169;SDS011;57543;45.442;9.212;2022-07-29T03:40:51;3.88;;;2.03;;
70169;SDS011;57543;45.442;9.212;2022-07-29T03:43:58;4.28;;;1.88;;
70169;SDS011;57543;45.442;9.212;2022-07-29T03:47:02;4.07;;;2.10;;
70169;SDS011;57543;45.442;9.212;2022-07-29T03:50:10;3.70;;;1.90;;
70169;SDS011;57543;45.442;9.212;2022-07-29T03:53:16;5.00;;;1.80;;
70169;SDS011;57543;45.442;9.212;2022-07-29T03:56:21;4.68;;;1.98;;
70169;SDS011;57543;45.442;9.212;2022-07-29T03:59:26;5.55;;;2.20;;
70169;SDS011;57543;45.442;9.212;2022-07-29T04:02:31;3.88;;;1.90;;
70169;SDS011;57543;45.442;9.212;2022-07-29T04:05:35;4.78;;;2.22;;
70169;SDS011;57543;45.442;9.212;2022-07-29T04:08:39;5.60;;;2.13;;
70169;SDS011;57543;45.442;9.212;2022-07-29T04:11:43;4.13;;;2.40;;
70169;SDS011;57543;45.442;9.212;2022-07-29T04:14:48;4.65;;;2.00;;
70169;SDS011;57543;45.442;9.212;2022-07-29T04:17:52;3.70;;;1.85;;
70169;SDS011;57543;45.442;9.212;2022-07-29T04:20:56;4.93;;;1.83;;
70169;SDS011;57543;45.442;9.212;2022-07-29T04:24:02;4.68;;;1.83;;
70169;SDS011;57543;45.442;9.212;2022-07-29T04:27:06;4.13;;;1.80;;
70169;SDS011;57543;45.442;9.212;2022-07-29T04:30:09;3.92;;;2.20;;
70169;SDS011;57543;45.442;9.212;2022-07-29T04:33:13;5.25;;;1.90;;
70169;SDS011;57543;45.442;9.212;2022-07-29T04:36:18;5.05;;;2.35;;
70169;SDS011;57543;45.442;9.212;2022-07-29T04:39:22;4.80;;;2.10;;
70169;SDS011;57543;45.442;9.212;2022-07-29T04:42:26;5.20;;;1.80;;
70169;SDS011;57543;45.442;9.212;2022-07-29T04:45:30;4.70;;;2.22;;
70169;SDS011;57543;45.442;9.212;2022-07-29T04:48:33;4.00;;;2.10;;
70169;SDS011;57543;45.442;9.212;2022-07-29T04:51:37;3.70;;;2.10;;
70169;SDS011;57543;45.442;9.212;2022-07-29T04:54:41;4.20;;;2.40;;
70169;SDS011;57543;45.442;9.212;2022-07-29T04:57:45;5.57;;;2.20;;
70169;SDS011;57543;45.442;9.212;2022-07-29T05:00:49;4.28;;;2.10;;
70169;SDS011;57543;45.442;9.212;2022-07-29T05:03:53;5.95;;;2.22;;
70169;SDS011;57543;45.442;9.212;2022-07-29T05:06:56;4.53;;;2.20;;
70169;SDS011;57543;45.442;9.212;2022-07-29T05:10:00;4.20;;;2.03;;
70169;SDS011;57543;45.442;9.212;2022-07-29T05:13:05;3.90;;;1.80;;
70169;SDS011;57543;45.442;9.212;2022-07-29T05:16:09;6.22;;;2.28;;
70169;SDS011;57543;45.442;9.212;2022-07-29T05:19:13;4.53;;;2.03;;
70169;SDS011;57543;45.442;9.212;2022-07-29T05:22:17;5.82;;;2.40;;
70169;SDS011;57543;45.442;9.212;2022-07-29T05:25:22;3.95;;;2.00;;
70169;SDS011;57543;45.442;9.212;2022-07-29T05:28:27;4.47;;;2.33;;
70169;SDS011;57543;45.442;9.212;2022-07-29T05:31:30;4.80;;;2.08;;
70169;SDS011;57543;45.442;9.212;2022-07-29T05:34:34;6.65;;;2.20;;
70169;SDS011;57543;45.442;9.212;2022-07-29T05:37:37;5.53;;;2.15;;
70169;SDS011;57543;45.442;9.212;2022-07-29T05:40:41;6.20;;;2.30;;
70169;SDS011;57543;45.442;9.212;2022-07-29T05:43:45;4.70;;;2.38;;
70169;SDS011;57543;45.442;9.212;2022-07-29T05:46:49;4.75;;;2.50;;
70169;SDS011;57543;45.442;9.212;2022-07-29T05:49:53;5.60;;;2.33;;
70169;SDS011;57543;45.442;9.212;2022-07-29T05:52:57;3.72;;;1.98;;
70169;SDS011;57543;45.442;9.212;2022-07-29T05:56:02;6.40;;;2.58;;
70169;SDS011;57543;45.442;9.212;2022-07-29T05:59:08;5.30;;;2.33;;
70169;SDS011;57543;45.442;9.212;2022-07-29T06:02:11;6.18;;;2.40;;
70169;SDS011;57543;45.442;9.212;2022-07-29T06:05:15;5.60;;;2.00;;
70169;SDS011;57543;45.442;9.212;2022-07-29T06:08:19;4.45;;;1.90;;
70169;SDS011;57543;45.442;9.212;2022-07-29T06:11:23;3.70;;;1.80;;
70169;SDS011;57543;45.442;9.212;2022-07-29T06:14:27;5.63;;;1.90;;
70169;SDS011;57543;45.442;9.212;2022-07-29T06:17:31;4.75;;;2.08;;
70169;SDS011;57543;45.442;9.212;2022-07-29T06:20:35;3.70;;;1.80;;
70169;SDS011;57543;45.442;9.212;2022-07-29T06:23:39;4.03;;;1.73;;
70169;SDS011;57543;45.442;9.212;2022-07-29T06:26:43;3.97;;;1.63;;
70169;SDS011;57543;45.442;9.212;2022-07-29T06:29:47;4.38;;;2.28;;
70169;SDS011;57543;45.442;9.212;2022-07-29T06:32:51;5.20;;;2.28;;
70169;SDS011;57543;45.442;9.212;2022-07-29T06:35:54;4.13;;;1.98;;
70169;SDS011;57543;45.442;9.212;2022-07-29T06:38:58;3.55;;;2.20;;
70169;SDS011;57543;45.442;9.212;2022-07-29T06:42:05;4.07;;;2.20;;
70169;SDS011;57543;45.442;9.212;2022-07-29T06:45:10;6.00;;;2.15;;
70169;SDS011;57543;45.442;9.212;2022-07-29T06:48:14;4.40;;;2.10;;
70169;SDS011;57543;45.442;9.212;2022-07-29T06:51:18;4.80;;;2.20;;
70169;SDS011;57543;45.442;9.212;2022-07-29T06:54:22;5.80;;;1.92;;
70169;SDS011;57543;45.442;9.212;2022-07-29T06:57:26;4.60;;;2.10;;
70169;SDS011;57543;45.442;9.212;2022-07-29T07:00:30;4.68;;;2.22;;
70169;SDS011;57543;45.442;9.212;2022-07-29T07:03:34;4.72;;;2.00;;
70169;SDS011;57543;45.442;9.212;2022-07-29T07:06:38;5.28;;;1.90;;
70169;SDS011;57543;45.442;9.212;2022-07-29T07:09:41;5.63;;;2.42;;
70169;SDS011;57543;45.442;9.212;2022-07-29T07:12:45;5.15;;;2.10;;
70169;SDS011;57543;45.442;9.212;2022-07-29T07:15:50;4.22;;;2.00;;
70169;SDS011;57543;45.442;9.212;2022-07-29T07:18:55;5.20;;;2.15;;
70169;SDS011;57543;45.442;9.212;2022-07-29T07:21:59;4.80;;;2.20;;
70169;SDS011;57543;45.442;9.212;2022-07-29T07:25:02;6.82;;;2.40;;
70169;SDS011;57543;45.442;9.212;2022-07-29T07:28:07;6.43;;;3.15;;
70169;SDS011;57543;45.442;9.212;2022-07-29T07:31:11;6.60;;;2.30;;
70169;SDS011;57543;45.442;9.212;2022-07-29T07:34:15;4.90;;;2.38;;
70169;SDS011;57543;45.442;9.212;2022-07-29T07:37:18;4.40;;;2.50;;
70169;SDS011;57543;45.442;9.212;2022-07-29T07:40:23;5.97;;;2.78;;
70169;SDS011;57543;45.442;9.212;2022-07-29T07:43:27;6.38;;;2.40;;
70169;SDS011;57543;45.442;9.212;2022-07-29T07:46:31;6.88;;;2.72;;
70169;SDS011;57543;45.442;9.212;2022-07-29T07:49:35;4.88;;;2.13;;
70169;SDS011;57543;45.442;9.212;2022-07-29T07:52:48;4.78;;;2.47;;
70169;SDS011;57543;45.442;9.212;2022-07-29T07:55:53;5.95;;;2.20;;
70169;SDS011;57543;45.442;9.212;2022-07-29T07:58:57;5.45;;;2.35;;
70169;SDS011;57543;45.442;9.212;2022-07-29T08:02:00;5.55;;;2.10;;
70169;SDS011;57543;45.442;9.212;2022-07-29T08:05:05;4.40;;;2.08;;
70169;SDS011;57543;45.442;9.212;2022-07-29T08:08:10;7.30;;;3.10;;
70169;SDS011;57543;45.442;9.212;2022-07-29T08:11:14;6.57;;;3.05;;
70169;SDS011;57543;45.442;9.212;2022-07-29T08:14:18;6.55;;;3.00;;
70169;SDS011;57543;45.442;9.212;2022-07-29T08:17:22;4.75;;;2.58;;
70169;SDS011;57543;45.442;9.212;2022-07-29T08:20:26;5.57;;;2.42;;
70169;SDS011;57543;45.442;9.212;2022-07-29T08:23:30;5.00;;;2.60;;
70169;SDS011;57543;45.442;9.212;2022-07-29T08:26:42;5.18;;;2.30;;
70169;SDS011;57543;45.442;9.212;2022-07-29T08:29:46;5.53;;;2.70;;
70169;SDS011;57543;45.442;9.212;2022-07-29T08:32:50;5.35;;;2.67;;
70169;SDS011;57543;45.442;9.212;2022-07-29T08:35:55;6.15;;;3.00;;
70169;SDS011;57543;45.442;9.212;2022-07-29T08:38:59;6.20;;;2.70;;
70169;SDS011;57543;45.442;9.212;2022-07-29T08:42:04;5.18;;;2.60;;
70169;SDS011;57543;45.442;9.212;2022-07-29T08:45:09;4.63;;;2.38;;
70169;SDS011;57543;45.442;9.212;2022-07-29T08:48:13;4.20;;;2.10;;
70169;SDS011;57543;45.442;9.212;2022-07-29T08:51:21;5.35;;;2.28;;
70169;SDS011;57543;45.442;9.212;2022-07-29T08:54:25;4.25;;;2.03;;
70169;SDS011;57543;45.442;9.212;2022-07-29T08:57:30;5.22;;;2.70;;
70169;SDS011;57543;45.442;9.212;2022-07-29T09:00:36;5.57;;;2.75;;
70169;SDS011;57543;45.442;9.212;2022-07-29T09:03:44;6.53;;;2.72;;
70169;SDS011;57543;45.442;9.212;2022-07-29T09:06:51;4.65;;;2.72;;
70169;SDS011;57543;45.442;9.212;2022-07-29T09:09:57;5.38;;;2.85;;
70169;SDS011;57543;45.442;9.212;2022-07-29T09:13:01;5.13;;;2.40;;
70169;SDS011;57543;45.442;9.212;2022-07-29T09:16:05;5.30;;;3.08;;
70169;SDS011;57543;45.442;9.212;2022-07-29T09:19:19;5.25;;;3.13;;
70169;SDS011;57543;45.442;9.212;2022-07-29T09:22:30;6.45;;;2.80;;
70169;SDS011;57543;45.442;9.212;2022-07-29T09:25:35;4.18;;;2.25;;
70169;SDS011;57543;45.442;9.212;2022-07-29T09:28:41;7.53;;;3.00;;
70169;SDS011;57543;45.442;9.212;2022-07-29T09:31:47;7.40;;;3.00;;
70169;SDS011;57543;45.442;9.212;2022-07-29T09:38:19;5.05;;;2.67;;
70169;SDS011;57543;45.442;9.212;2022-07-29T09:41:23;4.55;;;2.63;;
70169;SDS011;57543;45.442;9.212;2022-07-29T09:44:39;7.88;;;2.95;;
70169;SDS011;57543;45.442;9.212;2022-07-29T09:47:45;6.03;;;2.95;;
70169;SDS011;57543;45.442;9.212;2022-07-29T09:50:51;7.53;;;3.00;;
70169;SDS011;57543;45.442;9.212;2022-07-29T09:53:56;6.43;;;2.78;;
70169;SDS011;57543;45.442;9.212;2022-07-29T09:56:59;5.90;;;3.22;;
70169;SDS011;57543;45.442;9.212;2022-07-29T10:00:07;6.63;;;4.15;;
70169;SDS011;57543;45.442;9.212;2022-07-29T10:03:16;6.65;;;3.10;;
70169;SDS011;57543;45.442;9.212;2022-07-29T10:06:20;6.63;;;2.88;;
70169;SDS011;57543;45.442;9.212;2022-07-29T10:09:25;5.40;;;3.38;;
70169;SDS011;57543;45.442;9.212;2022-07-29T10:12:28;6.53;;;3.25;;
70169;SDS011;57543;45.442;9.212;2022-07-29T10:15:33;5.20;;;2.92;;
70169;SDS011;57543;45.442;9.212;2022-07-29T10:18:43;6.65;;;3.38;;
70169;SDS011;57543;45.442;9.212;2022-07-29T10:21:48;6.35;;;3.50;;
70169;SDS011;57543;45.442;9.212;2022-07-29T10:24:52;5.00;;;3.20;;
70169;SDS011;57543;45.442;9.212;2022-07-29T10:27:57;5.63;;;3.20;;
70169;SDS011;57543;45.442;9.212;2022-07-29T10:31:05;7.47;;;3.95;;
70169;SDS011;57543;45.442;9.212;2022-07-29T10:34:23;8.07;;;3.42;;
70169;SDS011;57543;45.442;9.212;2022-07-29T10:37:52;6.47;;;3.63;;
70169;SDS011;57543;45.442;9.212;2022-07-29T10:44:25;8.32;;;3.90;;
70169;SDS011;57543;45.442;9.212;2022-07-29T10:47:49;8.13;;;4.50;;
70169;SDS011;57543;45.442;9.212;2022-07-29T10:51:05;8.25;;;4.40;;
70169;SDS011;57543;45.442;9.212;2022-07-29T10:54:11;7.07;;;4.20;;
70169;SDS011;57543;45.442;9.212;2022-07-29T11:00:26;7.50;;;3.92;;
70169;SDS011;57543;45.442;9.212;2022-07-29T11:03:44;7.50;;;4.07;;
70169;SDS011;57543;45.442;9.212;2022-07-29T11:07:13;5.72;;;3.80;;
70169;SDS011;57543;45.442;9.212;2022-07-29T11:10:19;9.27;;;4.25;;
70169;SDS011;57543;45.442;9.212;2022-07-29T11:17:03;9.32;;;4.10;;
70169;SDS011;57543;45.442;9.212;2022-07-29T11:23:47;9.50;;;4.30;;
70169;SDS011;57543;45.442;9.212;2022-07-29T11:27:11;6.63;;;4.20;;
70169;SDS011;57543;45.442;9.212;2022-07-29T11:30:17;6.63;;;3.88;;
70169;SDS011;57543;45.442;9.212;2022-07-29T11:33:28;6.82;;;4.00;;
70169;SDS011;57543;45.442;9.212;2022-07-29T11:36:35;6.75;;;4.15;;
70169;SDS011;57543;45.442;9.212;2022-07-29T11:39:39;7.25;;;4.30;;
70169;SDS011;57543;45.442;9.212;2022-07-29T11:42:50;7.57;;;4.53;;
70169;SDS011;57543;45.442;9.212;2022-07-29T11:45:54;8.43;;;4.32;;
70169;SDS011;57543;45.442;9.212;2022-07-29T11:48:59;7.72;;;4.18;;
70169;SDS011;57543;45.442;9.212;2022-07-29T11:52:03;8.27;;;4.30;;
70169;SDS011;57543;45.442;9.212;2022-07-29T11:55:07;7.18;;;4.68;;
70169;SDS011;57543;45.442;9.212;2022-07-29T11:58:11;7.47;;;4.40;;
70169;SDS011;57543;45.442;9.212;2022-07-29T12:01:16;7.35;;;4.28;;
70169;SDS011;57543;45.442;9.212;2022-07-29T12:04:20;6.00;;;4.20;;
70169;SDS011;57543;45.442;9.212;2022-07-29T12:07:27;7.07;;;4.30;;
70169;SDS011;57543;45.442;9.212;2022-07-29T12:10:31;8.18;;;4.88;;
70169;SDS011;57543;45.442;9.212;2022-07-29T12:13:38;8.23;;;4.95;;
70169;SDS011;57543;45.442;9.212;2022-07-29T12:16:42;6.90;;;4.40;;
70169;SDS011;57543;45.442;9.212;2022-07-29T12:19:46;6.63;;;4.22;;
70169;SDS011;57543;45.442;9.212;2022-07-29T12:22:49;9.93;;;4.35;;
70169;SDS011;57543;45.442;9.212;2022-07-29T12:25:53;9.18;;;4.43;;
70169;SDS011;57543;45.442;9.212;2022-07-29T12:28:57;10.32;;;4.00;;
70169;SDS011;57543;45.442;9.212;2022-07-29T12:32:01;7.65;;;4.22;;
70169;SDS011;57543;45.442;9.212;2022-07-29T12:35:08;8.75;;;4.60;;
70169;SDS011;57543;45.442;9.212;2022-07-29T12:38:14;7.35;;;4.28;;
70169;SDS011;57543;45.442;9.212;2022-07-29T12:41:18;8.65;;;5.00;;
70169;SDS011;57543;45.442;9.212;2022-07-29T12:44:22;7.80;;;4.25;;
70169;SDS011;57543;45.442;9.212;2022-07-29T12:47:50;6.72;;;4.15;;
70169;SDS011;57543;45.442;9.212;2022-07-29T12:51:14;8.38;;;4.70;;
70169;SDS011;57543;45.442;9.212;2022-07-29T12:54:19;8.38;;;4.45;;
70169;SDS011;57543;45.442;9.212;2022-07-29T12:57:23;9.05;;;4.78;;
70169;SDS011;57543;45.442;9.212;2022-07-29T13:00:28;8.38;;;4.90;;
70169;SDS011;57543;45.442;9.212;2022-07-29T13:03:51;7.82;;;4.95;;
70169;SDS011;57543;45.442;9.212;2022-07-29T13:07:04;6.70;;;4.55;;
70169;SDS011;57543;45.442;9.212;2022-07-29T13:13:17;5.93;;;4.00;;
70169;SDS011;57543;45.442;9.212;2022-07-29T13:16:21;9.20;;;4.68;;
70169;SDS011;57543;45.442;9.212;2022-07-29T13:19:32;6.40;;;4.53;;
70169;SDS011;57543;45.442;9.212;2022-07-29T13:22:47;6.93;;;5.00;;
70169;SDS011;57543;45.442;9.212;2022-07-29T13:25:51;8.05;;;4.85;;
70169;SDS011;57543;45.442;9.212;2022-07-29T13:28:54;7.95;;;4.93;;
70169;SDS011;57543;45.442;9.212;2022-07-29T13:31:58;8.43;;;4.90;;
70169;SDS011;57543;45.442;9.212;2022-07-29T13:35:03;6.32;;;4.40;;
70169;SDS011;57543;45.442;9.212;2022-07-29T13:38:09;9.50;;;4.82;;
70169;SDS011;57543;45.442;9.212;2022-07-29T13:41:13;8.20;;;4.40;;
70169;SDS011;57543;45.442;9.212;2022-07-29T13:44:17;7.03;;;4.57;;
70169;SDS011;57543;45.442;9.212;2022-07-29T13:47:20;7.13;;;4.70;;
70169;SDS011;57543;45.442;9.212;2022-07-29T13:50:25;7.85;;;5.10;;
70169;SDS011;57543;45.442;9.212;2022-07-29T13:53:29;9.85;;;5.22;;
70169;SDS011;57543;45.442;9.212;2022-07-29T13:56:33;8.50;;;5.35;;
70169;SDS011;57543;45.442;9.212;2022-07-29T13:59:36;7.65;;;5.07;;
70169;SDS011;57543;45.442;9.212;2022-07-29T14:02:40;9.57;;;6.50;;
70169;SDS011;57543;45.442;9.212;2022-07-29T14:05:44;7.70;;;5.28;;
70169;SDS011;57543;45.442;9.212;2022-07-29T14:08:48;7.90;;;5.25;;
70169;SDS011;57543;45.442;9.212;2022-07-29T14:11:52;7.50;;;4.63;;
70169;SDS011;57543;45.442;9.212;2022-07-29T14:14:55;7.25;;;4.95;;
70169;SDS011;57543;45.442;9.212;2022-07-29T14:17:59;6.75;;;4.70;;
70169;SDS011;57543;45.442;9.212;2022-07-29T14:21:04;8.10;;;4.72;;
70169;SDS011;57543;45.442;9.212;2022-07-29T14:24:08;7.78;;;4.78;;
70169;SDS011;57543;45.442;9.212;2022-07-29T14:27:11;7.68;;;5.07;;
70169;SDS011;57543;45.442;9.212;2022-07-29T14:30:15;8.48;;;4.85;;
70169;SDS011;57543;45.442;9.212;2022-07-29T14:33:18;8.82;;;5.63;;
70169;SDS011;57543;45.442;9.212;2022-07-29T14:36:23;10.68;;;5.50;;
70169;SDS011;57543;45.442;9.212;2022-07-29T14:39:27;8.45;;;4.60;;
70169;SDS011;57543;45.442;9.212;2022-07-29T14:42:30;8.68;;;5.00;;
70169;SDS011;57543;45.442;9.212;2022-07-29T14:45:36;7.05;;;4.78;;
70169;SDS011;57543;45.442;9.212;2022-07-29T14:48:40;8.63;;;4.60;;
70169;SDS011;57543;45.442;9.212;2022-07-29T14:51:44;9.18;;;5.25;;
70169;SDS011;57543;45.442;9.212;2022-07-29T14:54:48;8.20;;;5.15;;
70169;SDS011;57543;45.442;9.212;2022-07-29T14:57:51;8.70;;;4.78;;
70169;SDS011;57543;45.442;9.212;2022-07-29T15:00:55;6.25;;;4.57;;
70169;SDS011;57543;45.442;9.212;2022-07-29T15:03:59;10.07;;;5.88;;
70169;SDS011;57543;45.442;9.212;2022-07-29T15:07:03;8.68;;;4.97;;
70169;SDS011;57543;45.442;9.212;2022-07-29T15:10:07;8.55;;;4.88;;
70169;SDS011;57543;45.442;9.212;2022-07-29T15:13:11;8.48;;;5.45;;
70169;SDS011;57543;45.442;9.212;2022-07-29T15:16:17;7.38;;;4.95;;
70169;SDS011;57543;45.442;9.212;2022-07-29T15:19:20;8.63;;;5.05;;
70169;SDS011;57543;45.442;9.212;2022-07-29T15:22:24;11.23;;;5.25;;
70169;SDS011;57543;45.442;9.212;2022-07-29T15:25:28;13.23;;;6.35;;
70169;SDS011;57543;45.442;9.212;2022-07-29T15:28:32;23.25;;;8.93;;
70169;SDS011;57543;45.442;9.212;2022-07-29T15:31:36;13.88;;;7.03;;
70169;SDS011;57543;45.442;9.212;2022-07-29T15:34:39;11.68;;;6.10;;
70169;SDS011;57543;45.442;9.212;2022-07-29T15:37:43;12.25;;;6.80;;
70169;SDS011;57543;45.442;9.212;2022-07-29T15:40:47;11.88;;;6.00;;
70169;SDS011;57543;45.442;9.212;2022-07-29T15:43:50;11.18;;;5.72;;
70169;SDS011;57543;45.442;9.212;2022-07-29T15:46:54;9.73;;;5.35;;
70169;SDS011;57543;45.442;9.212;2022-07-29T15:50:10;10.02;;;5.45;;
70169;SDS011;57543;45.442;9.212;2022-07-29T15:53:18;10.10;;;5.45;;
70169;SDS011;57543;45.442;9.212;2022-07-29T15:56:22;9.13;;;5.30;;
70169;SDS011;57543;45.442;9.212;2022-07-29T15:59:26;7.65;;;5.10;;
70169;SDS011;57543;45.442;9.212;2022-07-29T16:02:29;9.23;;;5.05;;
70169;SDS011;57543;45.442;9.212;2022-07-29T16:05:33;7.82;;;5.05;;
70169;SDS011;57543;45.442;9.212;2022-07-29T16:08:37;7.60;;;5.07;;
70169;SDS011;57543;45.442;9.212;2022-07-29T16:11:41;8.77;;;5.03;;
70169;SDS011;57543;45.442;9.212;2022-07-29T16:14:45;8.00;;;4.65;;
70169;SDS011;57543;45.442;9.212;2022-07-29T16:17:51;9.90;;;5.20;;
70169;SDS011;57543;45.442;9.212;2022-07-29T16:20:55;8.82;;;5.10;;
70169;SDS011;57543;45.442;9.212;2022-07-29T16:23:59;8.50;;;3.47;;
70169;SDS011;57543;45.442;9.212;2022-07-29T16:27:03;7.40;;;2.10;;
70169;SDS011;57543;45.442;9.212;2022-07-29T16:30:07;5.93;;;2.40;;
70169;SDS011;57543;45.442;9.212;2022-07-29T16:33:11;6.03;;;2.47;;
70169;SDS011;57543;45.442;9.212;2022-07-29T16:36:16;7.03;;;3.00;;
70169;SDS011;57543;45.442;9.212;2022-07-29T16:39:20;7.22;;;2.75;;
70169;SDS011;57543;45.442;9.212;2022-07-29T16:42:23;6.25;;;2.60;;
70169;SDS011;57543;45.442;9.212;2022-07-29T16:45:27;7.30;;;2.95;;
70169;SDS011;57543;45.442;9.212;2022-07-29T16:48:31;4.97;;;2.33;;
70169;SDS011;57543;45.442;9.212;2022-07-29T16:51:35;7.68;;;3.15;;
70169;SDS011;57543;45.442;9.212;2022-07-29T16:54:39;7.63;;;3.80;;
70169;SDS011;57543;45.442;9.212;2022-07-29T16:57:43;7.13;;;3.95;;
70169;SDS011;57543;45.442;9.212;2022-07-29T17:00:47;6.45;;;3.72;;
70169;SDS011;57543;45.442;9.212;2022-07-29T17:03:51;6.43;;;3.92;;
70169;SDS011;57543;45.442;9.212;2022-07-29T17:07:09;9.35;;;4.35;;
70169;SDS011;57543;45.442;9.212;2022-07-29T17:10:13;8.50;;;4.25;;
70169;SDS011;57543;45.442;9.212;2022-07-29T17:13:17;7.25;;;3.88;;
70169;SDS011;57543;45.442;9.212;2022-07-29T17:16:21;7.13;;;3.50;;
70169;SDS011;57543;45.442;9.212;2022-07-29T17:19:31;6.23;;;3.50;;
70169;SDS011;57543;45.442;9.212;2022-07-29T17:22:37;7.07;;;3.80;;
70169;SDS011;57543;45.442;9.212;2022-07-29T17:25:42;7.22;;;3.60;;
70169;SDS011;57543;45.442;9.212;2022-07-29T17:28:46;7.93;;;4.10;;
70169;SDS011;57543;45.442;9.212;2022-07-29T17:31:51;7.07;;;4.20;;
70169;SDS011;57543;45.442;9.212;2022-07-29T17:34:54;7.28;;;4.10;;
70169;SDS011;57543;45.442;9.212;2022-07-29T17:37:58;8.48;;;4.60;;
70169;SDS011;57543;45.442;9.212;2022-07-29T17:41:02;6.38;;;4.35;;
70169;SDS011;57543;45.442;9.212;2022-07-29T17:44:06;8.82;;;4.28;;
70169;SDS011;57543;45.442;9.212;2022-07-29T17:47:12;8.73;;;4.75;;
70169;SDS011;57543;45.442;9.212;2022-07-29T17:50:15;8.27;;;4.68;;
70169;SDS011;57543;45.442;9.212;2022-07-29T17:53:18;8.63;;;4.70;;
70169;SDS011;57543;45.442;9.212;2022-07-29T17:56:22;7.57;;;4.72;;
70169;SDS011;57543;45.442;9.212;2022-07-29T17:59:26;6.78;;;4.07;;
70169;SDS011;57543;45.442;9.212;2022-07-29T18:02:30;8.85;;;4.88;;
70169;SDS011;57543;45.442;9.212;2022-07-29T18:05:34;7.68;;;4.30;;
70169;SDS011;57543;45.442;9.212;2022-07-29T18:08:38;7.13;;;4.38;;
70169;SDS011;57543;45.442;9.212;2022-07-29T18:11:42;9.40;;;4.13;;
70169;SDS011;57543;45.442;9.212;2022-07-29T18:14:46;6.68;;;4.30;;
70169;SDS011;57543;45.442;9.212;2022-07-29T18:17:50;7.72;;;4.43;;
70169;SDS011;57543;45.442;9.212;2022-07-29T18:20:54;6.95;;;4.15;;
70169;SDS011;57543;45.442;9.212;2022-07-29T18:23:58;7.20;;;4.10;;
70169;SDS011;57543;45.442;9.212;2022-07-29T18:27:02;8.30;;;4.07;;
70169;SDS011;57543;45.442;9.212;2022-07-29T18:30:06;7.97;;;4.10;;
70169;SDS011;57543;45.442;9.212;2022-07-29T18:33:10;8.07;;;4.55;;
70169;SDS011;57543;45.442;9.212;2022-07-29T18:36:20;8.32;;;4.20;;
70169;SDS011;57543;45.442;9.212;2022-07-29T18:39:24;6.32;;;4.03;;
70169;SDS011;57543;45.442;9.212;2022-07-29T18:42:28;6.20;;;3.47;;
70169;SDS011;57543;45.442;9.212;2022-07-29T18:45:32;6.60;;;3.95;;
70169;SDS011;57543;45.442;9.212;2022-07-29T18:48:35;6.72;;;4.40;;
70169;SDS011;57543;45.442;9.212;2022-07-29T18:51:39;7.20;;;3.80;;
70169;SDS011;57543;45.442;9.212;2022-07-29T18:54:43;5.72;;;3.67;;
70169;SDS011;57543;45.442;9.212;2022-07-29T18:57:47;6.68;;;3.72;;
70169;SDS011;57543;45.442;9.212;2022-07-29T19:00:51;8.32;;;4.10;;
70169;SDS011;57543;45.442;9.212;2022-07-29T19:03:55;10.77;;;4.07;;
70169;SDS011;57543;45.442;9.212;2022-07-29T19:06:59;7.07;;;4.10;;